Terminal Aerodrome Forecast
Issued by NWS

Home | Current Version | Previous Version | Text Only | Print | Product List | Glossary On
Versions: 1 2 3 4 5 6 7 8 9 10 11 12 13 14 15 16 17 18 19 20 21 22 23 24 25 26 27 28 29 30 31 32 33 34 35 36 37 38 39 40 41 42 43 44 45 46 47 48 49 50
000
FTUS45 KBOU 270148 AAA
TAFBJC
TAF AMD
KBJC 270148Z 2702/2724 03007KT 4SM -RA BR BKN004 OVC010
      TEMPO 2702/2705 1SM -RA BR VV003
     FM270500 08006KT 3SM -RA BR BKN005 OVC012
     FM270800 05007KT 1SM -RA BR VV004
     FM271500 03007KT 3SM -SHRA BR SCT004 OVC012
     FM271900 08006KT 5SM -SHRA BR SCT007 BKN015 OVC030=

USA.gov is the U.S. government's official web portal to all federal, state and local government web resources and services.